sensor_id;sensor_type;location;lat;lon;timestamp;P1;durP1;ratioP1;P2;durP2;ratioP2
9541;SDS011;4809;48.224;8.572;2022-09-09T00:09:46;2.35;;;1.42;;
9541;SDS011;4809;48.224;8.572;2022-09-09T00:12:37;2.30;;;1.40;;
9541;SDS011;4809;48.224;8.572;2022-09-09T00:17:59;3.42;;;1.50;;
9541;SDS011;4809;48.224;8.572;2022-09-09T00:23:32;2.33;;;1.33;;
9541;SDS011;4809;48.224;8.572;2022-09-09T00:26:04;2.58;;;1.55;;
9541;SDS011;4809;48.224;8.572;2022-09-09T00:28:46;3.15;;;1.45;;
9541;SDS011;4809;48.224;8.572;2022-09-09T00:31:14;2.10;;;1.30;;
9541;SDS011;4809;48.224;8.572;2022-09-09T00:33:43;3.28;;;1.58;;
9541;SDS011;4809;48.224;8.572;2022-09-09T00:36:12;3.15;;;1.35;;
9541;SDS011;4809;48.224;8.572;2022-09-09T00:38:47;3.10;;;1.40;;
9541;SDS011;4809;48.224;8.572;2022-09-09T00:44:25;2.70;;;1.55;;
9541;SDS011;4809;48.224;8.572;2022-09-09T00:47:04;2.15;;;1.30;;
9541;SDS011;4809;48.224;8.572;2022-09-09T00:57:35;2.08;;;1.30;;
9541;SDS011;4809;48.224;8.572;2022-09-09T01:08:35;2.92;;;1.48;;
9541;SDS011;4809;48.224;8.572;2022-09-09T01:11:25;2.67;;;1.42;;
9541;SDS011;4809;48.224;8.572;2022-09-09T01:14:00;4.28;;;1.40;;
9541;SDS011;4809;48.224;8.572;2022-09-09T01:16:35;4.07;;;1.50;;
9541;SDS011;4809;48.224;8.572;2022-09-09T01:19:01;2.85;;;1.50;;
9541;SDS011;4809;48.224;8.572;2022-09-09T01:21:54;3.17;;;1.60;;
9541;SDS011;4809;48.224;8.572;2022-09-09T01:24:35;1.88;;;1.52;;
9541;SDS011;4809;48.224;8.572;2022-09-09T01:27:07;2.55;;;1.55;;
9541;SDS011;4809;48.224;8.572;2022-09-09T01:29:34;2.90;;;1.58;;
9541;SDS011;4809;48.224;8.572;2022-09-09T01:32:02;2.83;;;1.48;;
9541;SDS011;4809;48.224;8.572;2022-09-09T01:34:48;1.55;;;1.40;;
9541;SDS011;4809;48.224;8.572;2022-09-09T01:37:16;1.65;;;1.45;;
9541;SDS011;4809;48.224;8.572;2022-09-09T01:39:42;2.08;;;1.50;;
9541;SDS011;4809;48.224;8.572;2022-09-09T01:42:09;2.40;;;1.55;;
9541;SDS011;4809;48.224;8.572;2022-09-09T01:44:38;1.80;;;1.50;;
9541;SDS011;4809;48.224;8.572;2022-09-09T01:47:04;2.67;;;1.58;;
9541;SDS011;4809;48.224;8.572;2022-09-09T01:49:30;1.83;;;1.50;;
9541;SDS011;4809;48.224;8.572;2022-09-09T01:51:57;2.75;;;1.55;;
9541;SDS011;4809;48.224;8.572;2022-09-09T01:54:24;1.50;;;1.40;;
9541;SDS011;4809;48.224;8.572;2022-09-09T02:02:35;2.83;;;1.50;;
9541;SDS011;4809;48.224;8.572;2022-09-09T02:10:36;2.42;;;1.40;;
9541;SDS011;4809;48.224;8.572;2022-09-09T02:13:23;3.63;;;1.50;;
9541;SDS011;4809;48.224;8.572;2022-09-09T02:15:52;2.33;;;1.73;;
9541;SDS011;4809;48.224;8.572;2022-09-09T02:18:30;1.40;;;1.30;;
9541;SDS011;4809;48.224;8.572;2022-09-09T02:21:01;3.38;;;1.30;;
9541;SDS011;4809;48.224;8.572;2022-09-09T02:23:28;2.95;;;1.50;;
9541;SDS011;4809;48.224;8.572;2022-09-09T02:25:55;3.50;;;1.40;;
9541;SDS011;4809;48.224;8.572;2022-09-09T02:28:23;2.03;;;1.48;;
9541;SDS011;4809;48.224;8.572;2022-09-09T02:30:53;3.08;;;1.50;;
9541;SDS011;4809;48.224;8.572;2022-09-09T02:33:21;2.20;;;1.50;;
9541;SDS011;4809;48.224;8.572;2022-09-09T02:35:50;5.57;;;1.60;;
9541;SDS011;4809;48.224;8.572;2022-09-09T02:38:17;2.15;;;1.58;;
9541;SDS011;4809;48.224;8.572;2022-09-09T02:40:45;2.80;;;1.70;;
9541;SDS011;4809;48.224;8.572;2022-09-09T02:43:13;3.72;;;1.67;;
9541;SDS011;4809;48.224;8.572;2022-09-09T02:45:42;2.03;;;1.60;;
9541;SDS011;4809;48.224;8.572;2022-09-09T02:51:06;2.08;;;1.55;;
9541;SDS011;4809;48.224;8.572;2022-09-09T02:53:44;2.65;;;1.50;;
9541;SDS011;4809;48.224;8.572;2022-09-09T02:56:21;3.67;;;1.70;;
9541;SDS011;4809;48.224;8.572;2022-09-09T02:58:53;4.03;;;1.70;;
9541;SDS011;4809;48.224;8.572;2022-09-09T03:01:20;2.75;;;1.60;;
9541;SDS011;4809;48.224;8.572;2022-09-09T03:03:46;1.92;;;1.55;;
9541;SDS011;4809;48.224;8.572;2022-09-09T03:06:11;3.80;;;1.67;;
9541;SDS011;4809;48.224;8.572;2022-09-09T03:08:37;4.85;;;1.60;;
9541;SDS011;4809;48.224;8.572;2022-09-09T03:11:03;2.28;;;1.60;;
9541;SDS011;4809;48.224;8.572;2022-09-09T03:13:29;2.50;;;1.80;;
9541;SDS011;4809;48.224;8.572;2022-09-09T03:15:55;2.33;;;1.60;;
9541;SDS011;4809;48.224;8.572;2022-09-09T03:18:20;2.00;;;1.80;;
9541;SDS011;4809;48.224;8.572;2022-09-09T03:20:46;1.95;;;1.50;;
9541;SDS011;4809;48.224;8.572;2022-09-09T03:23:15;2.67;;;1.70;;
9541;SDS011;4809;48.224;8.572;2022-09-09T03:25:48;4.00;;;2.20;;
9541;SDS011;4809;48.224;8.572;2022-09-09T03:28:14;2.42;;;1.90;;
9541;SDS011;4809;48.224;8.572;2022-09-09T03:30:41;2.95;;;1.80;;
9541;SDS011;4809;48.224;8.572;2022-09-09T03:33:06;3.17;;;1.70;;
9541;SDS011;4809;48.224;8.572;2022-09-09T03:35:32;2.25;;;1.70;;
9541;SDS011;4809;48.224;8.572;2022-09-09T03:37:57;2.17;;;1.65;;
9541;SDS011;4809;48.224;8.572;2022-09-09T03:40:23;2.22;;;1.50;;
9541;SDS011;4809;48.224;8.572;2022-09-09T03:42:49;1.85;;;1.60;;
9541;SDS011;4809;48.224;8.572;2022-09-09T03:45:14;2.28;;;1.60;;
9541;SDS011;4809;48.224;8.572;2022-09-09T03:47:40;3.58;;;1.70;;
9541;SDS011;4809;48.224;8.572;2022-09-09T03:50:06;1.60;;;1.50;;
9541;SDS011;4809;48.224;8.572;2022-09-09T03:52:37;4.00;;;1.65;;
9541;SDS011;4809;48.224;8.572;2022-09-09T03:55:04;2.35;;;1.80;;
9541;SDS011;4809;48.224;8.572;2022-09-09T03:57:30;2.53;;;1.70;;
9541;SDS011;4809;48.224;8.572;2022-09-09T03:59:57;3.13;;;2.13;;
9541;SDS011;4809;48.224;8.572;2022-09-09T04:02:23;2.97;;;1.85;;
9541;SDS011;4809;48.224;8.572;2022-09-09T04:04:49;2.70;;;1.80;;
9541;SDS011;4809;48.224;8.572;2022-09-09T04:07:14;2.85;;;1.92;;
9541;SDS011;4809;48.224;8.572;2022-09-09T04:09:40;2.70;;;1.80;;
9541;SDS011;4809;48.224;8.572;2022-09-09T04:12:06;1.88;;;1.70;;
9541;SDS011;4809;48.224;8.572;2022-09-09T04:14:32;3.67;;;2.08;;
9541;SDS011;4809;48.224;8.572;2022-09-09T04:16:57;3.38;;;1.70;;
9541;SDS011;4809;48.224;8.572;2022-09-09T04:19:24;2.42;;;1.70;;
9541;SDS011;4809;48.224;8.572;2022-09-09T04:21:50;2.85;;;2.10;;
9541;SDS011;4809;48.224;8.572;2022-09-09T04:24:16;4.38;;;1.90;;
9541;SDS011;4809;48.224;8.572;2022-09-09T04:26:43;4.00;;;2.20;;
9541;SDS011;4809;48.224;8.572;2022-09-09T04:29:08;3.72;;;2.20;;
9541;SDS011;4809;48.224;8.572;2022-09-09T04:31:34;3.70;;;2.13;;
9541;SDS011;4809;48.224;8.572;2022-09-09T04:34:00;3.83;;;2.10;;
9541;SDS011;4809;48.224;8.572;2022-09-09T04:36:30;3.35;;;2.10;;
9541;SDS011;4809;48.224;8.572;2022-09-09T04:38:57;4.53;;;2.20;;
9541;SDS011;4809;48.224;8.572;2022-09-09T04:41:22;4.13;;;1.98;;
9541;SDS011;4809;48.224;8.572;2022-09-09T04:43:48;3.35;;;1.92;;
9541;SDS011;4809;48.224;8.572;2022-09-09T04:46:15;3.08;;;2.00;;
9541;SDS011;4809;48.224;8.572;2022-09-09T04:48:43;3.03;;;2.10;;
9541;SDS011;4809;48.224;8.572;2022-09-09T04:51:10;2.70;;;1.85;;
9541;SDS011;4809;48.224;8.572;2022-09-09T04:53:38;2.15;;;1.95;;
9541;SDS011;4809;48.224;8.572;2022-09-09T04:56:12;4.95;;;1.90;;
9541;SDS011;4809;48.224;8.572;2022-09-09T04:58:40;3.55;;;1.80;;
9541;SDS011;4809;48.224;8.572;2022-09-09T05:01:13;3.88;;;1.83;;
9541;SDS011;4809;48.224;8.572;2022-09-09T05:03:42;2.92;;;1.77;;
9541;SDS011;4809;48.224;8.572;2022-09-09T05:06:11;2.55;;;1.90;;
9541;SDS011;4809;48.224;8.572;2022-09-09T05:08:39;3.00;;;1.85;;
9541;SDS011;4809;48.224;8.572;2022-09-09T05:11:22;2.58;;;1.70;;
9541;SDS011;4809;48.224;8.572;2022-09-09T05:13:49;3.60;;;1.70;;
9541;SDS011;4809;48.224;8.572;2022-09-09T05:16:16;2.63;;;1.80;;
9541;SDS011;4809;48.224;8.572;2022-09-09T05:18:42;3.40;;;2.00;;
9541;SDS011;4809;48.224;8.572;2022-09-09T05:21:08;2.08;;;1.80;;
9541;SDS011;4809;48.224;8.572;2022-09-09T05:23:35;1.85;;;1.70;;
9541;SDS011;4809;48.224;8.572;2022-09-09T05:26:02;2.65;;;2.00;;
9541;SDS011;4809;48.224;8.572;2022-09-09T05:28:28;2.60;;;1.80;;
9541;SDS011;4809;48.224;8.572;2022-09-09T05:30:58;1.88;;;1.77;;
9541;SDS011;4809;48.224;8.572;2022-09-09T05:33:29;2.15;;;1.95;;
9541;SDS011;4809;48.224;8.572;2022-09-09T05:35:56;2.03;;;1.60;;
9541;SDS011;4809;48.224;8.572;2022-09-09T05:38:27;2.88;;;1.90;;
9541;SDS011;4809;48.224;8.572;2022-09-09T05:40:54;2.50;;;1.90;;
9541;SDS011;4809;48.224;8.572;2022-09-09T05:43:21;2.20;;;1.80;;
9541;SDS011;4809;48.224;8.572;2022-09-09T05:45:47;4.18;;;2.00;;
9541;SDS011;4809;48.224;8.572;2022-09-09T05:48:14;3.53;;;2.10;;
9541;SDS011;4809;48.224;8.572;2022-09-09T05:50:43;2.50;;;2.00;;
9541;SDS011;4809;48.224;8.572;2022-09-09T05:53:17;4.78;;;2.00;;
9541;SDS011;4809;48.224;8.572;2022-09-09T05:55:43;3.45;;;1.92;;
9541;SDS011;4809;48.224;8.572;2022-09-09T05:58:10;2.15;;;2.00;;
9541;SDS011;4809;48.224;8.572;2022-09-09T06:00:36;2.67;;;1.95;;
9541;SDS011;4809;48.224;8.572;2022-09-09T06:03:03;2.60;;;1.95;;
9541;SDS011;4809;48.224;8.572;2022-09-09T06:05:29;2.35;;;1.80;;
9541;SDS011;4809;48.224;8.572;2022-09-09T06:07:55;4.45;;;2.03;;
9541;SDS011;4809;48.224;8.572;2022-09-09T06:10:21;3.25;;;1.90;;
9541;SDS011;4809;48.224;8.572;2022-09-09T06:12:47;2.75;;;1.92;;
9541;SDS011;4809;48.224;8.572;2022-09-09T06:15:12;3.40;;;2.13;;
9541;SDS011;4809;48.224;8.572;2022-09-09T06:17:38;3.72;;;1.90;;
9541;SDS011;4809;48.224;8.572;2022-09-09T06:20:04;3.38;;;1.80;;
9541;SDS011;4809;48.224;8.572;2022-09-09T06:22:30;3.03;;;2.13;;
9541;SDS011;4809;48.224;8.572;2022-09-09T06:24:56;2.70;;;1.80;;
9541;SDS011;4809;48.224;8.572;2022-09-09T06:27:22;1.92;;;1.73;;
9541;SDS011;4809;48.224;8.572;2022-09-09T06:29:47;3.42;;;2.15;;
9541;SDS011;4809;48.224;8.572;2022-09-09T06:32:13;2.10;;;1.88;;
9541;SDS011;4809;48.224;8.572;2022-09-09T06:34:39;2.28;;;2.08;;
9541;SDS011;4809;48.224;8.572;2022-09-09T06:37:04;5.15;;;2.13;;
9541;SDS011;4809;48.224;8.572;2022-09-09T06:39:31;5.20;;;2.10;;
9541;SDS011;4809;48.224;8.572;2022-09-09T06:41:57;3.78;;;2.00;;
9541;SDS011;4809;48.224;8.572;2022-09-09T06:44:23;3.08;;;2.20;;
9541;SDS011;4809;48.224;8.572;2022-09-09T06:46:51;2.22;;;1.92;;
9541;SDS011;4809;48.224;8.572;2022-09-09T06:49:17;3.63;;;2.00;;
9541;SDS011;4809;48.224;8.572;2022-09-09T06:51:43;3.53;;;1.98;;
9541;SDS011;4809;48.224;8.572;2022-09-09T06:54:09;2.80;;;2.00;;
9541;SDS011;4809;48.224;8.572;2022-09-09T06:56:36;3.17;;;1.92;;
9541;SDS011;4809;48.224;8.572;2022-09-09T06:59:05;5.55;;;2.13;;
9541;SDS011;4809;48.224;8.572;2022-09-09T07:01:35;3.38;;;2.10;;
9541;SDS011;4809;48.224;8.572;2022-09-09T07:04:02;4.22;;;1.90;;
9541;SDS011;4809;48.224;8.572;2022-09-09T07:06:33;4.03;;;2.00;;
9541;SDS011;4809;48.224;8.572;2022-09-09T07:09:04;4.38;;;2.00;;
9541;SDS011;4809;48.224;8.572;2022-09-09T07:11:37;3.70;;;2.10;;
9541;SDS011;4809;48.224;8.572;2022-09-09T07:14:07;4.07;;;2.08;;
9541;SDS011;4809;48.224;8.572;2022-09-09T07:16:33;2.88;;;1.92;;
9541;SDS011;4809;48.224;8.572;2022-09-09T07:19:02;2.90;;;1.88;;
9541;SDS011;4809;48.224;8.572;2022-09-09T07:21:29;3.05;;;2.10;;
9541;SDS011;4809;48.224;8.572;2022-09-09T07:23:56;5.68;;;2.13;;
9541;SDS011;4809;48.224;8.572;2022-09-09T07:26:22;3.85;;;2.10;;
9541;SDS011;4809;48.224;8.572;2022-09-09T07:28:50;3.88;;;2.20;;
9541;SDS011;4809;48.224;8.572;2022-09-09T07:31:17;3.45;;;1.98;;
9541;SDS011;4809;48.224;8.572;2022-09-09T07:33:44;3.33;;;1.90;;
9541;SDS011;4809;48.224;8.572;2022-09-09T07:36:18;2.60;;;1.80;;
9541;SDS011;4809;48.224;8.572;2022-09-09T07:38:55;3.60;;;2.00;;
9541;SDS011;4809;48.224;8.572;2022-09-09T07:43:53;2.75;;;1.90;;
9541;SDS011;4809;48.224;8.572;2022-09-09T07:46:19;3.58;;;1.92;;
9541;SDS011;4809;48.224;8.572;2022-09-09T07:48:53;3.38;;;1.83;;
9541;SDS011;4809;48.224;8.572;2022-09-09T07:51:31;4.20;;;1.90;;
9541;SDS011;4809;48.224;8.572;2022-09-09T07:53:59;2.85;;;1.90;;
9541;SDS011;4809;48.224;8.572;2022-09-09T07:56:27;2.80;;;1.40;;
9541;SDS011;4809;48.224;8.572;2022-09-09T07:58:54;2.67;;;1.48;;
9541;SDS011;4809;48.224;8.572;2022-09-09T08:01:21;3.35;;;1.75;;
9541;SDS011;4809;48.224;8.572;2022-09-09T08:03:56;2.10;;;1.40;;
9541;SDS011;4809;48.224;8.572;2022-09-09T08:06:31;4.00;;;2.05;;
9541;SDS011;4809;48.224;8.572;2022-09-09T08:09:02;3.03;;;1.70;;
9541;SDS011;4809;48.224;8.572;2022-09-09T08:11:29;4.13;;;1.58;;
9541;SDS011;4809;48.224;8.572;2022-09-09T08:13:55;2.95;;;1.50;;
9541;SDS011;4809;48.224;8.572;2022-09-09T08:16:25;3.13;;;1.80;;
9541;SDS011;4809;48.224;8.572;2022-09-09T08:18:53;2.88;;;1.80;;
9541;SDS011;4809;48.224;8.572;2022-09-09T08:21:21;3.60;;;1.90;;
9541;SDS011;4809;48.224;8.572;2022-09-09T08:23:55;3.25;;;1.70;;
9541;SDS011;4809;48.224;8.572;2022-09-09T08:26:41;5.15;;;1.83;;
9541;SDS011;4809;48.224;8.572;2022-09-09T08:29:08;2.28;;;1.40;;
9541;SDS011;4809;48.224;8.572;2022-09-09T08:31:37;3.53;;;1.80;;
9541;SDS011;4809;48.224;8.572;2022-09-09T08:34:07;4.35;;;1.65;;
9541;SDS011;4809;48.224;8.572;2022-09-09T08:36:35;3.05;;;1.48;;
9541;SDS011;4809;48.224;8.572;2022-09-09T08:39:07;2.65;;;1.60;;
9541;SDS011;4809;48.224;8.572;2022-09-09T08:54:56;2.83;;;1.60;;
9541;SDS011;4809;48.224;8.572;2022-09-09T08:57:29;1.90;;;1.27;;
9541;SDS011;4809;48.224;8.572;2022-09-09T08:59:57;3.53;;;1.40;;
9541;SDS011;4809;48.224;8.572;2022-09-09T09:05:18;2.72;;;1.50;;
9541;SDS011;4809;48.224;8.572;2022-09-09T09:07:55;2.92;;;1.50;;
9541;SDS011;4809;48.224;8.572;2022-09-09T09:13:04;3.33;;;1.67;;
9541;SDS011;4809;48.224;8.572;2022-09-09T09:15:50;2.95;;;1.48;;
9541;SDS011;4809;48.224;8.572;2022-09-09T09:18:21;3.40;;;1.50;;
9541;SDS011;4809;48.224;8.572;2022-09-09T09:20:49;3.22;;;1.70;;
9541;SDS011;4809;48.224;8.572;2022-09-09T09:23:25;3.92;;;2.83;;
9541;SDS011;4809;48.224;8.572;2022-09-09T09:26:00;2.53;;;1.33;;
9541;SDS011;4809;48.224;8.572;2022-09-09T09:28:29;3.90;;;1.55;;
9541;SDS011;4809;48.224;8.572;2022-09-09T09:30:59;2.75;;;1.38;;
9541;SDS011;4809;48.224;8.572;2022-09-09T09:33:32;2.67;;;1.40;;
9541;SDS011;4809;48.224;8.572;2022-09-09T09:36:15;1.92;;;1.35;;
9541;SDS011;4809;48.224;8.572;2022-09-09T09:38:57;2.92;;;1.45;;
9541;SDS011;4809;48.224;8.572;2022-09-09T09:41:29;2.13;;;1.20;;
9541;SDS011;4809;48.224;8.572;2022-09-09T09:43:57;4.20;;;1.90;;
9541;SDS011;4809;48.224;8.572;2022-09-09T09:46:25;1.60;;;1.50;;
9541;SDS011;4809;48.224;8.572;2022-09-09T09:49:01;2.00;;;1.40;;
9541;SDS011;4809;48.224;8.572;2022-09-09T09:51:33;3.97;;;2.20;;
9541;SDS011;4809;48.224;8.572;2022-09-09T09:54:43;2.65;;;1.42;;
9541;SDS011;4809;48.224;8.572;2022-09-09T09:56:53;2.47;;;1.35;;
9541;SDS011;4809;48.224;8.572;2022-09-09T09:59:38;6.70;;;4.63;;
9541;SDS011;4809;48.224;8.572;2022-09-09T10:02:18;4.55;;;2.70;;
9541;SDS011;4809;48.224;8.572;2022-09-09T10:04:48;3.00;;;1.58;;
9541;SDS011;4809;48.224;8.572;2022-09-09T10:07:18;4.38;;;2.15;;
9541;SDS011;4809;48.224;8.572;2022-09-09T10:09:45;2.50;;;1.35;;
9541;SDS011;4809;48.224;8.572;2022-09-09T10:20:17;2.92;;;1.40;;
9541;SDS011;4809;48.224;8.572;2022-09-09T10:22:52;1.75;;;1.20;;
9541;SDS011;4809;48.224;8.572;2022-09-09T10:33:50;1.30;;;0.90;;
9541;SDS011;4809;48.224;8.572;2022-09-09T10:36:22;2.03;;;0.88;;
9541;SDS011;4809;48.224;8.572;2022-09-09T10:39:03;1.17;;;0.90;;
9541;SDS011;4809;48.224;8.572;2022-09-09T10:42:16;2.15;;;0.88;;
9541;SDS011;4809;48.224;8.572;2022-09-09T10:50:19;1.13;;;0.77;;
9541;SDS011;4809;48.224;8.572;2022-09-09T10:55:40;1.63;;;0.93;;
9541;SDS011;4809;48.224;8.572;2022-09-09T10:58:24;1.90;;;1.00;;
9541;SDS011;4809;48.224;8.572;2022-09-09T11:01:16;2.30;;;1.25;;
9541;SDS011;4809;48.224;8.572;2022-09-09T11:03:52;2.33;;;1.10;;
9541;SDS011;4809;48.224;8.572;2022-09-09T11:06:22;2.20;;;0.80;;
9541;SDS011;4809;48.224;8.572;2022-09-09T11:08:53;3.50;;;1.13;;
9541;SDS011;4809;48.224;8.572;2022-09-09T11:11:37;3.92;;;1.27;;
9541;SDS011;4809;48.224;8.572;2022-09-09T11:17:01;1.55;;;0.90;;
9541;SDS011;4809;48.224;8.572;2022-09-09T11:19:40;2.05;;;1.15;;
9541;SDS011;4809;48.224;8.572;2022-09-09T11:24:40;1.90;;;1.20;;
9541;SDS011;4809;48.224;8.572;2022-09-09T11:27:15;2.42;;;0.98;;
9541;SDS011;4809;48.224;8.572;2022-09-09T11:29:44;2.45;;;1.10;;
9541;SDS011;4809;48.224;8.572;2022-09-09T11:37:52;1.67;;;0.90;;
9541;SDS011;4809;48.224;8.572;2022-09-09T11:40:38;1.35;;;1.05;;
9541;SDS011;4809;48.224;8.572;2022-09-09T11:43:46;1.23;;;1.00;;
9541;SDS011;4809;48.224;8.572;2022-09-09T11:45:56;2.45;;;1.02;;
9541;SDS011;4809;48.224;8.572;2022-09-09T11:48:29;1.83;;;1.20;;
9541;SDS011;4809;48.224;8.572;2022-09-09T11:51:09;1.73;;;0.80;;
9541;SDS011;4809;48.224;8.572;2022-09-09T11:53:53;1.95;;;1.00;;
9541;SDS011;4809;48.224;8.572;2022-09-09T11:56:25;2.55;;;0.90;;
9541;SDS011;4809;48.224;8.572;2022-09-09T11:59:06;1.20;;;1.00;;
9541;SDS011;4809;48.224;8.572;2022-09-09T12:01:46;4.05;;;1.10;;
9541;SDS011;4809;48.224;8.572;2022-09-09T12:06:57;2.65;;;1.30;;
9541;SDS011;4809;48.224;8.572;2022-09-09T12:17:29;2.60;;;0.90;;
9541;SDS011;4809;48.224;8.572;2022-09-09T12:28:04;2.10;;;1.05;;
9541;SDS011;4809;48.224;8.572;2022-09-09T12:30:41;3.15;;;1.20;;
9541;SDS011;4809;48.224;8.572;2022-09-09T12:33:35;1.55;;;0.80;;
9541;SDS011;4809;48.224;8.572;2022-09-09T12:36:03;2.55;;;0.77;;
9541;SDS011;4809;48.224;8.572;2022-09-09T12:41:01;1.60;;;0.93;;
9541;SDS011;4809;48.224;8.572;2022-09-09T12:43:27;3.08;;;0.93;;
9541;SDS011;4809;48.224;8.572;2022-09-09T12:45:57;2.03;;;0.70;;
9541;SDS011;4809;48.224;8.572;2022-09-09T12:48:37;1.75;;;0.90;;
9541;SDS011;4809;48.224;8.572;2022-09-09T12:51:14;1.88;;;0.70;;
9541;SDS011;4809;48.224;8.572;2022-09-09T12:53:53;1.40;;;0.75;;
9541;SDS011;4809;48.224;8.572;2022-09-09T12:56:23;1.35;;;0.70;;
9541;SDS011;4809;48.224;8.572;2022-09-09T12:58:54;1.98;;;0.85;;
9541;SDS011;4809;48.224;8.572;2022-09-09T13:01:26;4.32;;;1.00;;
9541;SDS011;4809;48.224;8.572;2022-09-09T13:03:56;1.88;;;0.73;;
9541;SDS011;4809;48.224;8.572;2022-09-09T13:06:26;2.58;;;0.82;;
9541;SDS011;4809;48.224;8.572;2022-09-09T13:08:56;1.48;;;0.90;;
9541;SDS011;4809;48.224;8.572;2022-09-09T13:14:01;2.60;;;1.10;;
9541;SDS011;4809;48.224;8.572;2022-09-09T13:19:07;1.63;;;0.85;;
9541;SDS011;4809;48.224;8.572;2022-09-09T13:21:39;3.03;;;1.10;;
9541;SDS011;4809;48.224;8.572;2022-09-09T13:27:04;1.27;;;0.70;;
9541;SDS011;4809;48.224;8.572;2022-09-09T13:29:52;1.92;;;0.90;;
9541;SDS011;4809;48.224;8.572;2022-09-09T13:32:20;0.95;;;0.80;;
9541;SDS011;4809;48.224;8.572;2022-09-09T13:34:53;2.42;;;1.17;;
9541;SDS011;4809;48.224;8.572;2022-09-09T13:37:29;2.00;;;0.95;;
9541;SDS011;4809;48.224;8.572;2022-09-09T13:40:01;1.90;;;0.80;;
9541;SDS011;4809;48.224;8.572;2022-09-09T13:42:31;3.58;;;1.00;;
9541;SDS011;4809;48.224;8.572;2022-09-09T13:45:14;2.70;;;1.17;;
9541;SDS011;4809;48.224;8.572;2022-09-09T13:47:48;2.33;;;1.02;;
9541;SDS011;4809;48.224;8.572;2022-09-09T13:50:24;2.17;;;1.05;;
9541;SDS011;4809;48.224;8.572;2022-09-09T13:52:52;4.43;;;1.15;;
9541;SDS011;4809;48.224;8.572;2022-09-09T13:55:20;1.45;;;0.90;;
9541;SDS011;4809;48.224;8.572;2022-09-09T14:00:28;1.80;;;0.85;;
9541;SDS011;4809;48.224;8.572;2022-09-09T14:02:55;1.25;;;0.95;;
9541;SDS011;4809;48.224;8.572;2022-09-09T14:05:21;3.28;;;1.13;;
9541;SDS011;4809;48.224;8.572;2022-09-09T14:07:48;2.45;;;1.00;;
9541;SDS011;4809;48.224;8.572;2022-09-09T14:10:15;5.60;;;2.40;;
9541;SDS011;4809;48.224;8.572;2022-09-09T14:12:41;2.35;;;1.10;;
9541;SDS011;4809;48.224;8.572;2022-09-09T14:15:09;3.38;;;1.30;;
9541;SDS011;4809;48.224;8.572;2022-09-09T14:17:36;3.85;;;1.40;;
9541;SDS011;4809;48.224;8.572;2022-09-09T14:20:03;2.95;;;0.93;;
9541;SDS011;4809;48.224;8.572;2022-09-09T14:22:34;4.53;;;1.70;;
9541;SDS011;4809;48.224;8.572;2022-09-09T14:25:01;4.95;;;2.10;;
9541;SDS011;4809;48.224;8.572;2022-09-09T14:27:27;3.72;;;1.30;;
9541;SDS011;4809;48.224;8.572;2022-09-09T14:29:53;2.03;;;1.00;;
9541;SDS011;4809;48.224;8.572;2022-09-09T14:32:20;2.85;;;0.90;;
9541;SDS011;4809;48.224;8.572;2022-09-09T14:34:46;1.13;;;0.68;;
9541;SDS011;4809;48.224;8.572;2022-09-09T14:37:14;2.63;;;0.93;;
9541;SDS011;4809;48.224;8.572;2022-09-09T14:39:41;1.05;;;0.77;;
9541;SDS011;4809;48.224;8.572;2022-09-09T14:42:09;2.60;;;0.82;;
9541;SDS011;4809;48.224;8.572;2022-09-09T14:44:41;1.45;;;0.60;;
9541;SDS011;4809;48.224;8.572;2022-09-09T14:47:06;3.10;;;0.93;;
9541;SDS011;4809;48.224;8.572;2022-09-09T14:49:33;1.10;;;0.70;;
9541;SDS011;4809;48.224;8.572;2022-09-09T14:52:03;2.03;;;0.70;;
9541;SDS011;4809;48.224;8.572;2022-09-09T14:54:30;1.25;;;0.50;;
9541;SDS011;4809;48.224;8.572;2022-09-09T14:56:58;2.33;;;0.63;;
9541;SDS011;4809;48.224;8.572;2022-09-09T14:59:24;0.73;;;0.50;;
9541;SDS011;4809;48.224;8.572;2022-09-09T15:01:50;2.05;;;0.70;;
9541;SDS011;4809;48.224;8.572;2022-09-09T15:04:16;1.83;;;0.70;;
9541;SDS011;4809;48.224;8.572;2022-09-09T15:06:45;0.63;;;0.43;;
9541;SDS011;4809;48.224;8.572;2022-09-09T15:09:13;0.50;;;0.43;;
9541;SDS011;4809;48.224;8.572;2022-09-09T15:11:39;2.75;;;0.77;;
9541;SDS011;4809;48.224;8.572;2022-09-09T15:14:05;1.58;;;0.65;;
9541;SDS011;4809;48.224;8.572;2022-09-09T15:16:33;0.90;;;0.60;;
9541;SDS011;4809;48.224;8.572;2022-09-09T15:18:59;0.90;;;0.65;;
9541;SDS011;4809;48.224;8.572;2022-09-09T15:21:28;1.95;;;0.60;;
9541;SDS011;4809;48.224;8.572;2022-09-09T15:23:56;1.45;;;0.90;;
9541;SDS011;4809;48.224;8.572;2022-09-09T15:26:22;1.63;;;0.80;;
9541;SDS011;4809;48.224;8.572;2022-09-09T15:28:48;0.93;;;0.68;;
9541;SDS011;4809;48.224;8.572;2022-09-09T15:33:55;1.30;;;0.60;;
9541;SDS011;4809;48.224;8.572;2022-09-09T15:36:26;0.93;;;0.50;;
9541;SDS011;4809;48.224;8.572;2022-09-09T15:38:57;1.83;;;0.80;;
9541;SDS011;4809;48.224;8.572;2022-09-09T15:41:24;3.63;;;0.70;;
9541;SDS011;4809;48.224;8.572;2022-09-09T15:43:51;2.05;;;0.80;;
9541;SDS011;4809;48.224;8.572;2022-09-09T15:46:44;0.85;;;0.80;;
9541;SDS011;4809;48.224;8.572;2022-09-09T15:49:17;0.85;;;0.70;;
9541;SDS011;4809;48.224;8.572;2022-09-09T15:51:44;0.77;;;0.52;;
9541;SDS011;4809;48.224;8.572;2022-09-09T15:54:16;1.67;;;0.65;;
9541;SDS011;4809;48.224;8.572;2022-09-09T15:56:43;2.55;;;0.80;;
9541;SDS011;4809;48.224;8.572;2022-09-09T15:59:11;3.10;;;0.90;;
9541;SDS011;4809;48.224;8.572;2022-09-09T16:01:37;2.05;;;0.70;;
9541;SDS011;4809;48.224;8.572;2022-09-09T16:04:04;2.58;;;0.75;;
9541;SDS011;4809;48.224;8.572;2022-09-09T16:06:30;2.13;;;0.80;;
9541;SDS011;4809;48.224;8.572;2022-09-09T16:08:56;1.33;;;0.63;;
9541;SDS011;4809;48.224;8.572;2022-09-09T16:11:27;1.88;;;0.90;;
9541;SDS011;4809;48.224;8.572;2022-09-09T16:13:55;1.08;;;0.57;;
9541;SDS011;4809;48.224;8.572;2022-09-09T16:16:23;0.60;;;0.60;;
9541;SDS011;4809;48.224;8.572;2022-09-09T16:18:50;1.73;;;0.70;;
9541;SDS011;4809;48.224;8.572;2022-09-09T16:21:19;1.90;;;0.80;;
9541;SDS011;4809;48.224;8.572;2022-09-09T16:23:54;1.25;;;0.77;;
9541;SDS011;4809;48.224;8.572;2022-09-09T16:26:21;1.55;;;0.73;;
9541;SDS011;4809;48.224;8.572;2022-09-09T16:28:48;2.10;;;0.80;;
9541;SDS011;4809;48.224;8.572;2022-09-09T16:31:18;1.33;;;0.60;;
9541;SDS011;4809;48.224;8.572;2022-09-09T16:33:45;1.58;;;0.80;;
9541;SDS011;4809;48.224;8.572;2022-09-09T16:36:15;2.72;;;0.75;;
9541;SDS011;4809;48.224;8.572;2022-09-09T16:38:43;3.22;;;1.02;;
9541;SDS011;4809;48.224;8.572;2022-09-09T16:41:10;2.17;;;1.00;;
9541;SDS011;4809;48.224;8.572;2022-09-09T16:43:37;2.05;;;0.90;;
9541;SDS011;4809;48.224;8.572;2022-09-09T16:46:12;2.60;;;0.90;;
9541;SDS011;4809;48.224;8.572;2022-09-09T16:48:43;1.58;;;0.77;;
9541;SDS011;4809;48.224;8.572;2022-09-09T16:51:17;3.17;;;0.90;;
9541;SDS011;4809;48.224;8.572;2022-09-09T16:53:44;2.92;;;1.00;;
9541;SDS011;4809;48.224;8.572;2022-09-09T16:56:12;1.55;;;0.90;;
9541;SDS011;4809;48.224;8.572;2022-09-09T16:58:44;2.92;;;1.08;;
9541;SDS011;4809;48.224;8.572;2022-09-09T17:01:24;1.60;;;0.90;;
9541;SDS011;4809;48.224;8.572;2022-09-09T17:03:55;2.60;;;1.35;;
9541;SDS011;4809;48.224;8.572;2022-09-09T17:06:23;1.05;;;0.90;;
9541;SDS011;4809;48.224;8.572;2022-09-09T17:08:56;2.45;;;0.95;;
9541;SDS011;4809;48.224;8.572;2022-09-09T17:11:23;0.98;;;0.80;;
9541;SDS011;4809;48.224;8.572;2022-09-09T17:13:49;1.48;;;0.90;;
9541;SDS011;4809;48.224;8.572;2022-09-09T17:16:17;2.30;;;0.75;;
9541;SDS011;4809;48.224;8.572;2022-09-09T17:18:46;2.58;;;0.85;;
9541;SDS011;4809;48.224;8.572;2022-09-09T17:21:12;1.25;;;1.00;;
9541;SDS011;4809;48.224;8.572;2022-09-09T17:23:40;1.75;;;0.90;;
9541;SDS011;4809;48.224;8.572;2022-09-09T17:26:07;2.35;;;1.10;;
9541;SDS011;4809;48.224;8.572;2022-09-09T17:28:35;2.22;;;1.13;;
9541;SDS011;4809;48.224;8.572;2022-09-09T17:31:03;2.58;;;1.13;;
9541;SDS011;4809;48.224;8.572;2022-09-09T17:33:35;2.22;;;1.30;;
9541;SDS011;4809;48.224;8.572;2022-09-09T17:36:13;1.52;;;0.80;;
9541;SDS011;4809;48.224;8.572;2022-09-09T17:38:43;1.60;;;0.98;;
9541;SDS011;4809;48.224;8.572;2022-09-09T17:41:13;2.50;;;0.88;;
9541;SDS011;4809;48.224;8.572;2022-09-09T17:43:41;1.27;;;0.98;;
9541;SDS011;4809;48.224;8.572;2022-09-09T17:46:15;1.25;;;1.00;;
9541;SDS011;4809;48.224;8.572;2022-09-09T17:48:41;1.90;;;0.90;;
9541;SDS011;4809;48.224;8.572;2022-09-09T17:51:08;1.35;;;0.75;;
9541;SDS011;4809;48.224;8.572;2022-09-09T17:53:37;2.30;;;0.88;;